Wan Hai 267 — 9VDB6 — position and weather

sailwx.info

Track history (hours):
 
Tides and Currents Weather Stations Pressure Air Temp Water Temp Dewpoint Dewpoint Depression Visibility Wind Speed Wind Dir Waves Ship Positions

Wan Hai 267

Last reported at 2017-Nov-23 08:44 UTC. Time now 2017-Nov-24 09:22 UTC.
Position N 33°57' E 134°59'.

Length 198 m; draft 9.1 m.

Type: Cargo ship. MMSI: 564527118.

Date/timePositionNaut miles runAvg speedWind from/ knotsBaromVisibWave heightAir tempDewpointWater temp
2017-Nov-23 08:44N 33°57' E 134°59'418.5
2017-Nov-23 08:30N 34°02' E 134°59'917.5
2017-Nov-23 08:00N 34°10' E 134°58'612.2
2017-Nov-23 07:29N 34°17' E 134°58'715.5
2017-Nov-23 07:00N 34°23' E 135°03'917.5
2017-Nov-23 06:30N 34°29' E 135°10'816.0
2017-Nov-23 06:00N 34°36' E 135°16'5 9.9
2017-Nov-23 05:28N 34°41' E 135°15'0 0.3
2017-Nov-23 04:58N 34°41' E 135°15'0 0.0
2017-Nov-23 04:28N 34°41' E 135°15'0 0.0
2017-Nov-23 03:58N 34°41' E 135°15'0 0.0
2017-Nov-23 03:28N 34°41' E 135°15'0 0.0
2017-Nov-23 02:52N 34°41' E 135°15'0 0.0
2017-Nov-23 02:28N 34°41' E 135°15'0 0.0
2017-Nov-23 01:10N 34°41' E 135°15'0 0.0
2017-Nov-23 00:40N 34°41' E 135°15'0 0.0
2017-Nov-23 00:28N 34°41' E 135°15'0 0.0
2017-Nov-22 23:58N 34°41' E 135°15'0 0.0
2017-Nov-22 23:28N 34°41' E 135°15'0 0.0
2017-Nov-22 22:58N 34°41' E 135°15'1 2.2
2017-Nov-22 22:30N 34°40' E 135°15'4 7.9
2017-Nov-22 22:00N 34°38' E 135°19'510.0
2017-Nov-22 21:31N 34°39' E 135°25'0 0.5
2017-Nov-22 20:49N 34°39' E 135°26'0 0.0
2017-Nov-22 20:25N 34°39' E 135°26'0 0.0
2017-Nov-22 19:49N 34°39' E 135°26'0 0.0
2017-Nov-22 19:19N 34°39' E 135°26'  
2017-Nov-19 10:38N 24°20' E 118°19'213.6
2017-Nov-19 10:30N 24°20' E 118°17'713.1
2017-Nov-19 10:00N 24°21' E 118°10'611.7
2017-Nov-19 09:30N 24°25' E 118°05'5 9.0
2017-Nov-19 09:00N 24°29' E 118°04'2 2.9
2017-Nov-19 08:16N 24°31' E 118°05'0 0.0
2017-Nov-19 07:55N 24°31' E 118°05'0 0.0
2017-Nov-19 07:25N 24°31' E 118°05'0 0.0
2017-Nov-19 06:52N 24°31' E 118°05'0 0.0
2017-Nov-19 06:28N 24°31' E 118°05'0 0.0
2017-Nov-19 05:58N 24°31' E 118°05'0 0.0
2017-Nov-19 05:25N 24°31' E 118°05'0 0.0
2017-Nov-19 04:55N 24°31' E 118°05'0 0.0
2017-Nov-19 04:28N 24°31' E 118°05'0 0.0
2017-Nov-19 03:55N 24°31' E 118°05'0 0.0
2017-Nov-19 03:25N 24°31' E 118°05'0 0.0
2017-Nov-19 02:58N 24°31' E 118°05'0 0.0
2017-Nov-19 02:28N 24°31' E 118°05'0 0.0
2017-Nov-19 01:58N 24°31' E 118°05'0 0.0
2017-Nov-19 01:25N 24°31' E 118°05'0 0.0
2017-Nov-19 00:55N 24°31' E 118°05'0 0.0
2017-Nov-19 00:28N 24°31' E 118°05'0 0.0
2017-Nov-18 23:58N 24°31' E 118°05'0 0.0
2017-Nov-18 23:28N 24°31' E 118°05'0 0.4
2017-Nov-18 23:00N 24°31' E 118°05'4 7.8
2017-Nov-18 22:30N 24°28' E 118°03'510.4
2017-Nov-18 22:00N 24°24' E 118°07'4 7.4
2017-Nov-18 21:30N 24°21' E 118°10'5 9.3
2017-Nov-18 21:00N 24°18' E 118°13'610.9
2017-Nov-18 20:27N 24°13' E 118°17'4 8.4
2017-Nov-18 20:00N 24°09' E 118°16'612.5
2017-Nov-18 19:31N 24°07' E 118°10'813.9
2017-Nov-18 18:58N 24°01' E 118°05'612.2
2017-Nov-18 18:30N 23°56' E 118°01'17112.3
2017-Nov-18 04:36N 22°27' E 115°22'218.5
2017-Nov-18 04:30N 22°27' E 115°20'1117.9
2017-Nov-18 03:55N 22°24' E 115°09'717.9
2017-Nov-18 03:30N 22°23' E 115°01'917.7
2017-Nov-18 03:00N 22°19' E 114°52'918.0
2017-Nov-18 02:30N 22°16' E 114°43'917.8
2017-Nov-18 02:00N 22°12' E 114°35'917.6
2017-Nov-18 01:30N 22°09' E 114°26'917.1
2017-Nov-18 01:00N 22°07' E 114°17'714.9
2017-Nov-18 00:30N 22°12' E 114°11'5 9.9
2017-Nov-18 00:00N 22°15' E 114°07'713.5
2017-Nov-17 23:29N 22°22' E 114°04'612.6
2017-Nov-17 23:00N 22°21' E 113°57'5 9.7
2017-Nov-17 22:30N 22°24' E 113°53'3 5.6
2017-Nov-17 22:00N 22°26' E 113°53'1 1.3
2017-Nov-17 21:30N 22°27' E 113°53'0 0.0
2017-Nov-17 21:00N 22°27' E 113°53'0 0.0
2017-Nov-17 20:30N 22°27' E 113°53'0 0.0
2017-Nov-17 20:00N 22°27' E 113°53'0 0.0
2017-Nov-17 19:30N 22°27' E 113°53'0 0.0
2017-Nov-17 19:00N 22°27' E 113°53'0 0.0
2017-Nov-17 18:30N 22°27' E 113°53'0 0.0
2017-Nov-17 18:00N 22°27' E 113°53'0 0.0
2017-Nov-17 17:30N 22°27' E 113°53'0 0.0
2017-Nov-17 17:00N 22°27' E 113°53'0 0.0
2017-Nov-17 16:30N 22°27' E 113°53'0 0.0
2017-Nov-17 16:00N 22°27' E 113°53'0 0.0
2017-Nov-17 15:30N 22°27' E 113°53'0 0.0
2017-Nov-17 15:00N 22°27' E 113°53'0 0.0
2017-Nov-17 14:30N 22°27' E 113°53'0 0.0
2017-Nov-17 14:00N 22°27' E 113°53'0 0.0
2017-Nov-17 13:30N 22°27' E 113°53'0 0.0
2017-Nov-17 13:00N 22°27' E 113°53'0 0.0
2017-Nov-17 12:30N 22°27' E 113°53'0 0.0
2017-Nov-17 12:00N 22°27' E 113°53'0 0.0
2017-Nov-17 11:30N 22°27' E 113°53'0 0.0
2017-Nov-17 10:57N 22°27' E 113°53'0 0.0
2017-Nov-17 10:30N 22°27' E 113°53'0 0.0
2017-Nov-17 10:00N 22°27' E 113°53'0 0.0
2017-Nov-17 09:31N 22°27' E 113°53'1 2.9
2017-Nov-17 09:01N 22°26' E 113°53'1 2.9
2017-Nov-17 08:31N 22°24' E 113°54'3 6.7
2017-Nov-17 08:00N 22°21' E 113°56'812.5
2017-Nov-17 07:23N 22°22' E 114°04'24 6.4
2017-Nov-17 03:35N 21°58' E 114°00'217.4
2017-Nov-17 03:29N 21°57' E 113°59'917.3
2017-Nov-17 02:59N 21°53' E 113°50'817.2
2017-Nov-17 02:30N 21°50' E 113°42'917.4
2017-Nov-17 02:00N 21°46' E 113°34'917.5
2017-Nov-17 01:30N 21°42' E 113°26'917.6
2017-Nov-17 01:00N 21°37' E 113°18'1017.3
2017-Nov-17 00:27N 21°32' E 113°09'6817.3
2017-Nov-16 20:29N 20°55' E 112°07'5814.5
2017-Nov-16 16:30N 20°23' E 111°16'610.2
2017-Nov-16 15:58N 20°20' E 111°11'  
Track history (hours):
 
Tides and Currents Weather Stations Pressure Air Temp Water Temp Dewpoint Dewpoint Depression Visibility Wind Speed Wind Dir Waves Ship Positions

Wan Hai 267

Last reported at 2017-Nov-23 08:44 UTC. Time now 2017-Nov-24 09:22 UTC.
Position N 33°57' E 134°59'.

Length 198 m; draft 9.1 m.

Type: Cargo ship. MMSI: 564527118.

Date/timePositionNaut miles runAvg speedWind from/ knotsBaromVisibWave heightAir tempDewpointWater temp
2017-Nov-23 08:44N 33°57' E 134°59'418.5
2017-Nov-23 08:30N 34°02' E 134°59'917.5
2017-Nov-23 08:00N 34°10' E 134°58'612.2
2017-Nov-23 07:29N 34°17' E 134°58'715.5
2017-Nov-23 07:00N 34°23' E 135°03'917.5
2017-Nov-23 06:30N 34°29' E 135°10'816.0
2017-Nov-23 06:00N 34°36' E 135°16'5 9.9
2017-Nov-23 05:28N 34°41' E 135°15'0 0.3
2017-Nov-23 04:58N 34°41' E 135°15'0 0.0
2017-Nov-23 04:28N 34°41' E 135°15'0 0.0
2017-Nov-23 03:58N 34°41' E 135°15'0 0.0
2017-Nov-23 03:28N 34°41' E 135°15'0 0.0
2017-Nov-23 02:52N 34°41' E 135°15'0 0.0
2017-Nov-23 02:28N 34°41' E 135°15'0 0.0
2017-Nov-23 01:10N 34°41' E 135°15'0 0.0
2017-Nov-23 00:40N 34°41' E 135°15'0 0.0
2017-Nov-23 00:28N 34°41' E 135°15'0 0.0
2017-Nov-22 23:58N 34°41' E 135°15'0 0.0
2017-Nov-22 23:28N 34°41' E 135°15'0 0.0
2017-Nov-22 22:58N 34°41' E 135°15'1 2.2
2017-Nov-22 22:30N 34°40' E 135°15'4 7.9
2017-Nov-22 22:00N 34°38' E 135°19'510.0
2017-Nov-22 21:31N 34°39' E 135°25'0 0.5
2017-Nov-22 20:49N 34°39' E 135°26'0 0.0
2017-Nov-22 20:25N 34°39' E 135°26'0 0.0
2017-Nov-22 19:49N 34°39' E 135°26'0 0.0
2017-Nov-22 19:19N 34°39' E 135°26'  
2017-Nov-19 10:38N 24°20' E 118°19'213.6
2017-Nov-19 10:30N 24°20' E 118°17'713.1
2017-Nov-19 10:00N 24°21' E 118°10'611.7
2017-Nov-19 09:30N 24°25' E 118°05'5 9.0
2017-Nov-19 09:00N 24°29' E 118°04'2 2.9
2017-Nov-19 08:16N 24°31' E 118°05'0 0.0
2017-Nov-19 07:55N 24°31' E 118°05'0 0.0
2017-Nov-19 07:25N 24°31' E 118°05'0 0.0
2017-Nov-19 06:52N 24°31' E 118°05'0 0.0
2017-Nov-19 06:28N 24°31' E 118°05'0 0.0
2017-Nov-19 05:58N 24°31' E 118°05'0 0.0
2017-Nov-19 05:25N 24°31' E 118°05'0 0.0
2017-Nov-19 04:55N 24°31' E 118°05'0 0.0
2017-Nov-19 04:28N 24°31' E 118°05'0 0.0
2017-Nov-19 03:55N 24°31' E 118°05'0 0.0
2017-Nov-19 03:25N 24°31' E 118°05'0 0.0
2017-Nov-19 02:58N 24°31' E 118°05'0 0.0
2017-Nov-19 02:28N 24°31' E 118°05'0 0.0
2017-Nov-19 01:58N 24°31' E 118°05'0 0.0
2017-Nov-19 01:25N 24°31' E 118°05'0 0.0
2017-Nov-19 00:55N 24°31' E 118°05'0 0.0
2017-Nov-19 00:28N 24°31' E 118°05'0 0.0
2017-Nov-18 23:58N 24°31' E 118°05'0 0.0
2017-Nov-18 23:28N 24°31' E 118°05'0 0.4
2017-Nov-18 23:00N 24°31' E 118°05'4 7.8
2017-Nov-18 22:30N 24°28' E 118°03'510.4
2017-Nov-18 22:00N 24°24' E 118°07'4 7.4
2017-Nov-18 21:30N 24°21' E 118°10'5 9.3
2017-Nov-18 21:00N 24°18' E 118°13'610.9
2017-Nov-18 20:27N 24°13' E 118°17'4 8.4
2017-Nov-18 20:00N 24°09' E 118°16'612.5
2017-Nov-18 19:31N 24°07' E 118°10'813.9
2017-Nov-18 18:58N 24°01' E 118°05'612.2
2017-Nov-18 18:30N 23°56' E 118°01'17112.3
2017-Nov-18 04:36N 22°27' E 115°22'218.5
2017-Nov-18 04:30N 22°27' E 115°20'1117.9
2017-Nov-18 03:55N 22°24' E 115°09'717.9
2017-Nov-18 03:30N 22°23' E 115°01'917.7
2017-Nov-18 03:00N 22°19' E 114°52'918.0
2017-Nov-18 02:30N 22°16' E 114°43'917.8
2017-Nov-18 02:00N 22°12' E 114°35'917.6
2017-Nov-18 01:30N 22°09' E 114°26'917.1
2017-Nov-18 01:00N 22°07' E 114°17'714.9
2017-Nov-18 00:30N 22°12' E 114°11'5 9.9
2017-Nov-18 00:00N 22°15' E 114°07'713.5
2017-Nov-17 23:29N 22°22' E 114°04'612.6
2017-Nov-17 23:00N 22°21' E 113°57'5 9.7
2017-Nov-17 22:30N 22°24' E 113°53'3 5.6
2017-Nov-17 22:00N 22°26' E 113°53'1 1.3
2017-Nov-17 21:30N 22°27' E 113°53'0 0.0
2017-Nov-17 21:00N 22°27' E 113°53'0 0.0
2017-Nov-17 20:30N 22°27' E 113°53'0 0.0
2017-Nov-17 20:00N 22°27' E 113°53'0 0.0
2017-Nov-17 19:30N 22°27' E 113°53'0 0.0
2017-Nov-17 19:00N 22°27' E 113°53'0 0.0
2017-Nov-17 18:30N 22°27' E 113°53'0 0.0
2017-Nov-17 18:00N 22°27' E 113°53'0 0.0
2017-Nov-17 17:30N 22°27' E 113°53'0 0.0
2017-Nov-17 17:00N 22°27' E 113°53'0 0.0
2017-Nov-17 16:30N 22°27' E 113°53'0 0.0
2017-Nov-17 16:00N 22°27' E 113°53'0 0.0
2017-Nov-17 15:30N 22°27' E 113°53'0 0.0
2017-Nov-17 15:00N 22°27' E 113°53'0 0.0
2017-Nov-17 14:30N 22°27' E 113°53'0 0.0
2017-Nov-17 14:00N 22°27' E 113°53'0 0.0
2017-Nov-17 13:30N 22°27' E 113°53'0 0.0
2017-Nov-17 13:00N 22°27' E 113°53'0 0.0
2017-Nov-17 12:30N 22°27' E 113°53'0 0.0
2017-Nov-17 12:00N 22°27' E 113°53'0 0.0
2017-Nov-17 11:30N 22°27' E 113°53'0 0.0
2017-Nov-17 10:57N 22°27' E 113°53'0 0.0
2017-Nov-17 10:30N 22°27' E 113°53'0 0.0
2017-Nov-17 10:00N 22°27' E 113°53'0 0.0
2017-Nov-17 09:31N 22°27' E 113°53'1 2.9
2017-Nov-17 09:01N 22°26' E 113°53'1 2.9
2017-Nov-17 08:31N 22°24' E 113°54'3 6.7
2017-Nov-17 08:00N 22°21' E 113°56'812.5
2017-Nov-17 07:23N 22°22' E 114°04'24 6.4
2017-Nov-17 03:35N 21°58' E 114°00'217.4
2017-Nov-17 03:29N 21°57' E 113°59'917.3
2017-Nov-17 02:59N 21°53' E 113°50'817.2
2017-Nov-17 02:30N 21°50' E 113°42'917.4
2017-Nov-17 02:00N 21°46' E 113°34'917.5
2017-Nov-17 01:30N 21°42' E 113°26'917.6
2017-Nov-17 01:00N 21°37' E 113°18'1017.3
2017-Nov-17 00:27N 21°32' E 113°09'6817.3
2017-Nov-16 20:29N 20°55' E 112°07'5814.5
2017-Nov-16 16:30N 20°23' E 111°16'610.2
2017-Nov-16 15:58N 20°20' E 111°11'  

Dump ship's entire track history